KIJX/IJX METAR and TAF weather

Enter ICAO airport designator
Station Type Date Time Source
KIJX METAR 2019/04/20 18:35 UTC NOAA

KIJX 201835Z AUTO 32011G16KT 10SM CLR 17/M02 A2989 RMK AO2 T01741025


Station Type Date Time Source
KIJX Decoded METAR 2019/04/20 18:35 UTC NOAA

Jacksonville, Jacksonville Municipal Airport, IL, United States (KIJX) 39-46-27N 090-14-19W
Apr 20, 2019 - 02:35 PM EDT / 2019.04.20 1835 UTC
Wind: from the NW (320 degrees) at 13 MPH (11 KT) gusting to 18 MPH (16 KT):0
Visibility: 10 mile(s):0
Sky conditions: clear
Temperature: 63.3 F (17.4 C)
Dew Point: 27.5 F (-2.5 C)
Relative Humidity: 25%
Pressure (altimeter): 29.89 in. Hg (1012 hPa)
ob: KIJX 201835Z AUTO 32011G16KT 10SM CLR 17/M02 A2989 RMK AO2 T01741025
cycle: 18

Station Type Date Time Source
KIJX TAF UTC NOAA

Error!

Example: see airport list